Time;durP1;ratioP1;P1;durP2;ratioP2;P2;SDS_P1;SDS_P2;PMS_P1;PMS_P2;Temp;Humidity;BMP_temperature;BMP_pressure;BME280_temperature;BME280_humidity;BME280_pressure;Samples;Min_cycle;Max_cycle;Signal;HPM_P1;HPM_P2
2020/12/21 00:01:49;;;;;;;11.32;2.90;;;8.90;91.20;;;9.30;75.22;100998.78;4982806;28;20510;-84
2020/12/21 00:04:17;;;;;;;15.07;3.15;;;8.90;91.00;;;9.27;75.50;100995.56;4987016;28;20062;-84
2020/12/21 00:06:44;;;;;;;12.40;2.95;;;8.90;91.10;;;9.26;75.21;100989.28;4986408;28;20098;-84
2020/12/21 00:09:11;;;;;;;11.27;3.03;;;8.90;91.00;;;9.26;75.06;100992.00;4994073;28;20046;-84
2020/12/21 00:11:40;;;;;;;11.43;3.80;;;8.90;91.20;;;9.22;75.39;100990.63;5000400;28;20121;-84
2020/12/21 00:14:09;;;;;;;8.88;2.72;;;8.90;91.00;;;9.19;75.03;100996.38;4996159;28;20109;-84
2020/12/21 00:16:40;;;;;;;17.83;3.17;;;8.80;91.00;;;9.20;75.41;100987.22;4982563;28;20126;-84
2020/12/21 00:19:09;;;;;;;13.38;3.20;;;8.80;91.20;;;9.20;75.39;100984.50;4988972;28;20089;-84
2020/12/21 00:21:39;;;;;;;11.23;3.20;;;8.80;91.30;;;9.14;75.43;100987.88;4997230;28;20038;-84
2020/12/21 00:24:07;;;;;;;11.43;2.85;;;8.80;91.20;;;9.14;75.88;100983.31;4987798;28;20039;-84
2020/12/21 00:26:34;;;;;;;13.77;3.13;;;8.80;91.10;;;9.15;75.38;100978.72;4988974;28;20054;-84
2020/12/21 00:29:02;;;;;;;12.10;3.03;;;8.80;91.20;;;9.16;75.70;100983.13;4985594;28;20422;-84
2020/12/21 00:31:31;;;;;;;14.52;3.28;;;8.80;91.30;;;9.15;75.50;100984.97;4991195;28;20065;-84
2020/12/21 00:34:00;;;;;;;13.07;2.92;;;8.80;91.30;;;9.14;75.63;100977.88;4984821;28;20069;-84
2020/12/21 00:36:27;;;;;;;12.13;3.10;;;8.80;91.20;;;9.15;75.62;100989.56;4981821;28;20500;-84
2020/12/21 00:38:55;;;;;;;13.80;3.05;;;8.80;91.10;;;9.14;75.33;100988.72;4981558;28;20077;-84
2020/12/21 00:41:24;;;;;;;12.95;3.05;;;8.80;91.30;;;9.10;75.28;100981.94;4987669;28;20120;-84
2020/12/21 00:43:55;;;;;;;14.15;3.25;;;8.80;91.10;;;9.15;75.41;100986.84;4971919;28;20407;-84
2020/12/21 00:46:25;;;;;;;11.02;2.88;;;8.80;91.20;;;9.14;75.16;100983.31;4982110;28;20050;-84
2020/12/21 00:48:53;;;;;;;12.27;2.95;;;8.70;91.20;;;9.07;75.53;100989.53;4992997;28;20042;-84
2020/12/21 00:51:20;;;;;;;14.13;2.97;;;8.80;91.10;;;9.07;75.49;100981.41;4969722;28;20185;-84
2020/12/21 00:53:48;;;;;;;11.30;2.47;;;8.80;91.00;;;9.09;75.46;100990.22;4981300;28;20122;-84
2020/12/21 00:56:17;;;;;;;12.15;2.80;;;8.70;91.00;;;9.08;75.58;100986.69;4979588;28;20102;-84
2020/12/21 00:58:45;;;;;;;7.03;2.50;;;8.70;91.10;;;9.05;75.64;100986.16;4989690;28;20074;-84
2020/12/21 01:01:15;;;;;;;16.60;3.42;;;8.70;91.10;;;9.03;75.46;100980.88;4995448;28;20043;-84
2020/12/21 01:03:42;;;;;;;16.05;3.42;;;8.70;91.00;;;9.06;75.46;100990.53;4997893;28;20066;-84
2020/12/21 01:06:09;;;;;;;15.23;3.20;;;8.70;91.10;;;9.09;74.89;100988.34;4983884;28;20109;-84
2020/12/21 01:08:36;;;;;;;15.18;3.38;;;8.70;91.10;;;9.09;75.16;100992.94;4980171;28;20074;-84
2020/12/21 01:11:10;;;;;;;13.73;3.28;;;8.70;90.90;;;9.08;74.59;100993.94;4980480;28;20049;-84
2020/12/21 01:13:37;;;;;;;13.45;3.30;;;8.70;91.00;;;9.05;74.92;100984.28;4989428;28;20372;-84
2020/12/21 01:16:04;;;;;;;17.05;3.17;;;8.70;91.20;;;9.06;74.90;100990.53;4965374;28;20059;-84
2020/12/21 01:18:33;;;;;;;15.95;3.17;;;8.70;90.90;;;9.00;74.91;101000.19;4979354;28;20066;-83
2020/12/21 01:21:00;;;;;;;10.75;2.70;;;8.60;90.80;;;9.02;74.76;100995.44;4991985;28;20081;-84
2020/12/21 01:23:26;;;;;;;12.00;3.58;;;8.60;91.00;;;8.94;75.23;100993.53;4991531;28;20051;-84
2020/12/21 01:25:53;;;;;;;14.15;3.33;;;8.60;91.00;;;8.91;75.25;100990.31;4979925;28;20118;-84
2020/12/21 01:28:20;;;;;;;15.80;3.20;;;8.60;91.00;;;8.93;75.35;100991.88;4987197;28;20499;-84
2020/12/21 01:30:47;;;;;;;14.40;3.03;;;8.60;91.00;;;8.89;75.38;100995.91;4981674;28;20107;-84
2020/12/21 01:33:14;;;;;;;12.20;2.75;;;8.60;90.70;;;8.91;75.23;100999.31;4987365;28;20467;-84
2020/12/21 01:35:42;;;;;;;11.90;3.67;;;8.60;90.80;;;8.91;74.81;101004.75;4981259;28;20106;-84
2020/12/21 01:38:08;;;;;;;18.73;3.15;;;8.60;90.70;;;8.92;74.82;101001.00;4984711;28;20050;-84
2020/12/21 01:40:35;;;;;;;15.48;3.25;;;8.60;90.90;;;8.88;74.83;101004.22;4981331;28;20503;-83
2020/12/21 01:43:02;;;;;;;10.25;2.95;;;8.60;91.10;;;8.89;75.03;101012.22;4983553;28;20125;-85
2020/12/21 01:45:29;;;;;;;13.13;2.78;;;8.60;91.00;;;8.90;75.67;101004.91;4986791;28;20137;-84
2020/12/21 01:47:55;;;;;;;14.38;3.00;;;8.60;91.10;;;8.94;75.61;101003.56;4973505;28;20049;-84
2020/12/21 01:50:22;;;;;;;12.65;3.17;;;8.60;91.20;;;8.93;75.08;101008.16;4990534;28;20073;-84
2020/12/21 01:52:50;;;;;;;16.35;3.67;;;8.50;91.20;;;8.96;74.79;100999.66;4988265;28;20070;-84
2020/12/21 01:55:17;;;;;;;12.02;2.83;;;8.60;90.90;;;8.95;74.62;100989.84;4979567;28;20640;-84
2020/12/21 01:57:44;;;;;;;11.23;3.35;;;8.50;91.00;;;8.96;74.61;100993.38;4995293;28;20130;-84
2020/12/21 02:00:10;;;;;;;12.20;2.95;;;8.50;91.00;;;8.92;74.93;100984.72;4994099;28;20066;-84
2020/12/21 02:02:40;;;;;;;10.77;2.78;;;8.50;91.20;;;8.89;74.94;100985.06;4981005;28;20058;-84
2020/12/21 02:05:07;;;;;;;16.88;3.33;;;8.50;90.90;;;8.86;74.83;100989.97;4986424;28;20718;-84
2020/12/21 02:07:34;;;;;;;15.15;3.05;;;8.50;90.90;;;8.87;75.29;100992.53;4984378;28;20430;-84
2020/12/21 02:10:01;;;;;;;11.20;3.15;;;8.50;91.00;;;8.88;74.69;100988.78;4984812;28;20121;-84
2020/12/21 02:12:28;;;;;;;12.07;3.50;;;8.40;91.00;;;8.86;75.09;100993.50;4990317;28;20114;-84
2020/12/21 02:14:55;;;;;;;15.38;3.33;;;8.40;91.00;;;8.86;74.79;100989.97;4987949;28;20069;-84
2020/12/21 02:17:21;;;;;;;9.68;2.75;;;8.40;90.80;;;8.87;74.85;100989.81;4984750;28;20454;-84
2020/12/21 02:19:48;;;;;;;14.25;3.50;;;8.40;90.90;;;8.84;74.68;100997.41;4987744;28;20080;-84
2020/12/21 02:22:16;;;;;;;12.43;2.92;;;8.40;90.80;;;8.85;74.88;100988.25;4991039;28;20118;-84
2020/12/21 02:24:43;;;;;;;14.32;2.70;;;8.40;91.00;;;8.79;74.82;100989.75;4985922;28;20080;-84
2020/12/21 02:27:10;;;;;;;11.15;2.97;;;8.40;90.70;;;8.76;75.00;100985.50;4984022;28;20050;-84
2020/12/21 02:29:36;;;;;;;9.95;3.20;;;8.40;90.70;;;8.80;75.35;100981.44;4979886;28;20494;-84
2020/12/21 02:32:05;;;;;;;10.73;2.85;;;8.50;91.00;;;8.78;75.20;100983.47;4994629;28;20078;-84
2020/12/21 02:34:31;;;;;;;12.55;3.08;;;8.50;91.00;;;8.76;74.87;100990.91;4984909;28;20116;-83
2020/12/21 02:36:59;;;;;;;9.45;2.97;;;8.40;90.80;;;8.76;75.16;100985.50;4984944;28;20596;-84
2020/12/21 02:39:27;;;;;;;14.75;2.88;;;8.40;91.00;;;8.78;75.15;100982.63;4997425;28;20104;-84
2020/12/21 02:41:53;;;;;;;10.77;2.53;;;8.40;91.10;;;8.76;75.26;100979.22;4977609;28;20074;-84
2020/12/21 02:44:20;;;;;;;12.13;2.70;;;8.40;91.10;;;8.76;74.95;100982.78;4978564;28;20566;-84
2020/12/21 02:46:47;;;;;;;11.23;3.25;;;8.40;91.00;;;8.74;75.13;100986.69;4961330;28;20149;-84
2020/12/21 02:49:14;;;;;;;12.63;2.65;;;8.30;90.80;;;8.76;74.81;100984.66;4990950;28;20074;-84
2020/12/21 02:51:40;;;;;;;9.90;2.55;;;8.40;90.90;;;8.76;75.21;100995.50;4985340;28;20379;-84
2020/12/21 02:54:07;;;;;;;9.95;2.53;;;8.30;91.10;;;8.75;74.51;100997.34;4988661;28;20069;-84
2020/12/21 02:56:35;;;;;;;14.38;2.72;;;8.30;90.90;;;8.72;74.95;101000.41;4979437;28;20058;-84
2020/12/21 02:59:01;;;;;;;13.32;2.90;;;8.30;90.80;;;8.70;74.75;101001.56;4978102;28;20153;-84
2020/12/21 03:01:28;;;;;;;13.90;3.10;;;8.30;90.70;;;8.69;74.76;101005.28;4993599;28;20089;-84
2020/12/21 03:03:55;;;;;;;8.85;2.63;;;8.30;90.80;;;8.71;74.78;101004.13;4988880;28;20133;-84
2020/12/21 03:06:21;;;;;;;11.90;3.17;;;8.30;90.80;;;8.70;74.76;100997.00;4982489;28;20113;-84
2020/12/21 03:08:48;;;;;;;13.35;3.05;;;8.30;90.90;;;8.69;74.56;100994.44;4987876;28;20051;-84
2020/12/21 03:11:15;;;;;;;12.98;3.28;;;8.30;90.80;;;8.66;74.53;100994.75;4991263;28;20074;-84
2020/12/21 03:13:42;;;;;;;16.67;3.20;;;8.30;91.00;;;8.63;74.49;101000.50;4984611;28;20422;-84
2020/12/21 03:16:12;;;;;;;16.83;2.70;;;8.30;90.50;;;8.67;75.08;101000.03;4983952;28;20050;-84
2020/12/21 03:18:38;;;;;;;12.32;2.50;;;8.30;90.60;;;8.67;75.03;100996.47;4975757;28;20049;-84
2020/12/21 03:21:05;;;;;;;9.70;2.78;;;8.30;90.80;;;8.64;74.90;100994.91;4977434;28;20558;-84
2020/12/21 03:23:32;;;;;;;10.30;2.53;;;8.30;90.90;;;8.66;74.68;101000.19;4983653;28;20525;-84
2020/12/21 03:25:58;;;;;;;9.85;2.60;;;8.30;90.90;;;8.66;74.77;100995.59;4982180;28;20082;-84
2020/12/21 03:28:25;;;;;;;11.95;2.80;;;8.30;91.20;;;8.63;75.08;100990.50;4982417;28;20495;-84
2020/12/21 03:30:53;;;;;;;14.38;2.75;;;8.30;91.00;;;8.63;75.21;100989.66;4984610;28;20063;-84
2020/12/21 03:33:19;;;;;;;9.55;2.72;;;8.30;91.00;;;8.60;75.14;100998.94;4981108;28;20070;-84
2020/12/21 03:35:46;;;;;;;10.48;2.55;;;8.30;91.00;;;8.61;75.10;100987.94;4988653;28;20059;-83
2020/12/21 03:38:13;;;;;;;14.75;2.83;;;8.30;91.10;;;8.59;75.20;100981.84;4976695;28;20070;-84
2020/12/21 03:40:40;;;;;;;10.23;2.50;;;8.30;91.10;;;8.58;74.83;100980.13;4985458;28;20051;-84
2020/12/21 03:43:07;;;;;;;10.35;2.28;;;8.20;90.90;;;8.59;74.64;100976.41;4974170;28;609900;-84
2020/12/21 03:45:33;;;;;;;10.85;2.63;;;8.20;90.80;;;8.61;74.95;100977.09;4963016;28;20108;-84
2020/12/21 03:48:01;;;;;;;14.50;2.80;;;8.20;90.90;;;8.62;74.51;100977.94;4989708;28;20038;-84
2020/12/21 03:50:28;;;;;;;9.60;2.20;;;8.20;90.90;;;8.54;74.83;100967.88;4993095;28;20058;-84
2020/12/21 03:52:55;;;;;;;7.85;2.40;;;8.20;90.70;;;8.56;74.73;100968.56;4981845;28;20138;-84
2020/12/21 03:55:22;;;;;;;11.50;2.30;;;8.20;90.90;;;8.61;74.47;100955.38;4987267;28;20074;-84
2020/12/21 03:57:49;;;;;;;12.10;2.40;;;8.20;90.90;;;8.62;74.69;100953.53;4983577;28;20047;-84
2020/12/21 04:00:15;;;;;;;12.02;2.50;;;8.30;91.10;;;8.63;75.08;100946.25;4987000;28;20074;-84
2020/12/21 04:02:42;;;;;;;8.85;2.58;;;8.20;91.20;;;8.59;74.92;100940.28;4987807;28;20039;-84
2020/12/21 04:05:10;;;;;;;8.40;2.03;;;8.20;91.10;;;8.62;75.11;100945.38;4989866;28;20051;-85
2020/12/21 04:07:37;;;;;;;9.27;2.30;;;8.20;91.00;;;8.55;75.08;100937.06;4991199;28;20126;-85
2020/12/21 04:10:06;;;;;;;10.07;2.08;;;8.20;90.80;;;8.54;74.67;100943.47;4982462;28;20074;-84
2020/12/21 04:12:34;;;;;;;13.95;2.70;;;8.20;91.10;;;8.58;74.59;100944.00;5000790;28;20169;-84
2020/12/21 04:15:01;;;;;;;9.80;2.00;;;8.20;91.20;;;8.61;74.73;100939.09;4985798;28;20055;-84
2020/12/21 04:17:27;;;;;;;10.23;2.63;;;8.20;91.10;;;8.63;75.17;100951.69;4990452;28;20065;-82
2020/12/21 04:19:54;;;;;;;13.45;2.47;;;8.20;91.10;;;8.59;75.12;100945.72;4996940;28;20483;-83
2020/12/21 04:22:22;;;;;;;10.88;2.97;;;8.30;91.30;;;8.54;74.94;100942.63;4989763;28;20077;-85
2020/12/21 04:24:49;;;;;;;11.52;1.95;;;8.20;91.00;;;8.56;74.61;100944.16;4988001;28;20074;-85
2020/12/21 04:27:15;;;;;;;9.80;1.85;;;8.20;90.80;;;8.59;75.09;100952.00;4979143;28;20078;-85
2020/12/21 04:29:42;;;;;;;11.65;2.10;;;8.20;90.80;;;8.61;74.91;100949.97;4981018;28;20130;-85
2020/12/21 04:32:09;;;;;;;11.85;2.17;;;8.20;91.20;;;8.61;74.74;100955.38;4985350;28;20661;-87
2020/12/21 04:34:36;;;;;;;11.88;2.42;;;8.20;91.00;;;8.59;74.98;100964.72;4987234;28;20086;-86
2020/12/21 04:37:03;;;;;;;10.95;2.50;;;8.20;90.80;;;8.59;74.82;100968.25;4985412;28;20043;-87
2020/12/21 04:39:34;;;;;;;14.60;2.50;;;8.20;90.80;;;8.58;74.97;100966.56;4992545;28;20046;-86
2020/12/21 04:42:01;;;;;;;14.70;2.15;;;8.20;90.90;;;8.55;74.90;100960.63;4985088;28;20042;-86
2020/12/21 04:44:28;;;;;;;8.77;1.88;;;8.20;90.80;;;8.48;74.92;100948.69;4991968;28;20162;-86
2020/12/21 04:46:56;;;;;;;8.77;1.95;;;8.20;90.60;;;8.51;75.07;100946.53;4981919;28;20130;-86
2020/12/21 04:49:23;;;;;;;9.98;2.25;;;8.20;90.80;;;8.54;75.21;100953.47;4989816;28;20050;-86
2020/12/21 04:51:50;;;;;;;9.50;1.83;;;8.20;90.80;;;8.58;75.17;100947.56;4990541;28;20046;-86
2020/12/21 04:54:18;;;;;;;6.60;2.25;;;8.30;91.00;;;8.58;74.55;100950.28;4995001;28;20051;-86
2020/12/21 04:56:46;;;;;;;11.40;2.33;;;8.30;90.60;;;8.60;74.54;100947.41;4980887;28;20074;-86
2020/12/21 04:59:14;;;;;;;12.93;2.00;;;8.30;90.50;;;8.59;74.74;100954.69;4981787;28;20561;-86
2020/12/21 05:01:41;;;;;;;9.55;2.20;;;8.30;90.40;;;8.60;74.84;100953.72;4963576;28;20066;-87
2020/12/21 05:04:08;;;;;;;7.57;1.85;;;8.30;90.60;;;8.59;74.52;100948.44;4994047;28;20155;-86
2020/12/21 05:06:35;;;;;;;7.22;2.00;;;8.20;90.70;;;8.59;74.67;100935.72;4990398;28;20062;-86
2020/12/21 05:09:05;;;;;;;9.05;2.10;;;8.20;90.80;;;8.55;74.81;100937.06;4991978;28;20562;-85
2020/12/21 05:11:32;;;;;;;8.68;1.90;;;8.20;90.70;;;8.55;74.46;100939.75;4982890;28;20091;-86
2020/12/21 05:14:08;;;;;;;8.05;2.22;;;8.20;90.50;;;8.57;74.82;100926.88;4979976;28;20078;-86
2020/12/21 05:16:35;;;;;;;7.95;1.80;;;8.20;90.80;;;8.51;74.92;100927.53;4981636;28;20054;-86
2020/12/21 05:19:01;;;;;;;10.90;2.03;;;8.20;90.80;;;8.51;74.68;100922.13;4995315;28;20446;-87
2020/12/21 05:21:30;;;;;;;12.80;2.10;;;8.20;90.80;;;8.53;74.79;100919.22;4987864;28;20062;-83
2020/12/21 05:23:58;;;;;;;9.73;2.25;;;8.20;90.70;;;8.52;74.81;100920.25;4980123;28;20510;-86
2020/12/21 05:26:31;;;;;;;10.20;2.00;;;8.20;90.40;;;8.56;74.87;100918.91;4983254;28;20057;-87
2020/12/21 05:28:59;;;;;;;13.77;2.72;;;8.20;90.70;;;8.54;74.80;100910.06;4971389;28;20077;-86
2020/12/21 05:31:28;;;;;;;14.65;2.80;;;8.20;90.80;;;8.57;74.77;100904.34;4981856;28;20039;-86
2020/12/21 05:33:55;;;;;;;11.80;2.95;;;8.30;90.90;;;8.56;75.00;100900.75;4989094;28;20054;-86
2020/12/21 05:36:23;;;;;;;10.35;2.75;;;8.30;90.70;;;8.59;74.72;100896.88;4982645;28;20046;-86
2020/12/21 05:38:58;;;;;;;11.02;2.45;;;8.30;90.70;;;8.57;74.70;100902.47;4961345;28;20081;-86
2020/12/21 05:41:26;;;;;;;11.18;2.05;;;8.30;90.30;;;8.63;74.57;100902.84;4986173;28;20121;-86
2020/12/21 05:43:56;;;;;;;9.30;2.22;;;8.40;90.20;;;8.57;74.69;100894.34;4998106;28;20046;-86
2020/12/21 05:46:26;;;;;;;7.43;1.85;;;8.40;90.60;;;8.56;75.16;100906.19;4990038;28;20369;-86
2020/12/21 05:48:55;;;;;;;11.20;2.55;;;8.40;90.60;;;8.49;75.55;100899.72;4986844;28;20062;-85
2020/12/21 05:51:24;;;;;;;7.07;1.73;;;8.30;90.50;;;8.55;75.04;100901.78;4977461;28;20115;-87
2020/12/21 05:53:54;;;;;;;9.25;2.47;;;8.40;90.70;;;8.58;75.12;100898.72;4987726;28;20093;-87
2020/12/21 05:56:23;;;;;;;12.20;2.35;;;8.40;90.40;;;8.60;74.99;100901.28;4983976;28;20133;-87
2020/12/21 05:58:50;;;;;;;16.25;2.78;;;8.40;90.40;;;8.56;75.08;100897.19;4977855;28;20054;-86
2020/12/21 06:01:18;;;;;;;12.40;2.22;;;8.60;90.50;;;8.51;75.02;100900.41;4978644;28;20384;-83
2020/12/21 06:03:48;;;;;;;8.43;1.73;;;8.50;90.40;;;8.54;74.70;100905.50;4978562;28;20081;-85
2020/12/21 06:06:18;;;;;;;9.65;2.00;;;8.50;90.00;;;8.59;75.30;100902.31;4982997;28;20054;-85
2020/12/21 06:08:48;;;;;;;9.25;1.88;;;8.50;90.10;;;8.65;75.58;100898.09;5000871;28;20077;-86
2020/12/21 06:11:20;;;;;;;14.07;2.10;;;8.50;90.40;;;8.64;75.69;100909.94;5001155;28;20058;-86
2020/12/21 06:14:06;;;;;;;11.40;2.10;;;8.50;90.60;;;8.63;75.57;100897.41;5000723;28;20570;-86
2020/12/21 06:16:36;;;;;;;11.02;1.98;;;8.60;90.20;;;8.70;75.37;100887.59;5001169;28;20102;-86
2020/12/21 06:19:06;;;;;;;9.32;2.03;;;8.70;90.40;;;8.72;75.10;100888.28;4983765;28;20050;-85
2020/12/21 06:21:35;;;;;;;10.10;2.10;;;8.60;90.30;;;8.64;74.68;100888.25;5000631;28;20077;-86
2020/12/21 06:24:03;;;;;;;15.52;2.00;;;8.70;89.50;;;8.71;74.79;100882.00;5000116;28;20053;-86
2020/12/21 06:26:38;;;;;;;8.25;2.00;;;8.70;89.70;;;8.73;75.09;100882.69;4985620;28;20056;-86
2020/12/21 06:29:09;;;;;;;10.20;1.98;;;8.70;90.10;;;8.70;75.00;100898.44;4978448;28;20067;-86
2020/12/21 06:31:44;;;;;;;7.72;1.70;;;8.70;89.70;;;8.72;75.39;100890.97;4977871;28;20106;-87
2020/12/21 06:34:15;;;;;;;9.88;2.33;;;8.70;89.70;;;8.70;75.10;100890.31;4977347;28;20077;-86
2020/12/21 06:36:43;;;;;;;11.68;1.90;;;8.70;89.70;;;8.74;74.85;100894.41;4980938;28;20414;-86
2020/12/21 06:39:21;;;;;;;7.60;1.83;;;8.70;89.70;;;8.72;74.73;100899.13;4980246;28;20066;-86
2020/12/21 06:41:47;;;;;;;8.20;1.83;;;8.70;89.60;;;8.74;74.85;100895.25;4980148;28;20638;-85
2020/12/21 06:44:14;;;;;;;7.85;1.80;;;8.70;89.80;;;8.79;75.36;100897.47;4981946;28;20058;-86
2020/12/21 06:46:42;;;;;;;8.55;2.13;;;8.70;90.10;;;8.79;74.60;100897.47;4979842;28;20499;-86
2020/12/21 06:49:14;;;;;;;11.82;2.20;;;8.70;89.90;;;8.79;74.49;100894.75;4979064;28;20101;-86
2020/12/21 06:51:44;;;;;;;13.38;2.03;;;8.70;89.90;;;8.76;74.89;100889.69;4978896;28;20147;-87
2020/12/21 06:54:11;;;;;;;10.73;2.10;;;8.70;89.60;;;8.80;74.81;100893.75;4978820;28;20454;-87
2020/12/21 06:56:40;;;;;;;7.82;1.95;;;8.80;89.80;;;8.83;74.83;100895.28;4979924;28;20102;-86
2020/12/21 06:59:12;;;;;;;8.05;2.38;;;8.70;89.80;;;8.83;74.90;100896.13;4979823;28;20109;-87
2020/12/21 07:01:41;;;;;;;7.88;1.80;;;8.70;89.90;;;8.83;74.98;100892.56;4979503;28;20039;-86
2020/12/21 07:04:14;;;;;;;6.53;1.90;;;8.70;89.80;;;8.85;74.97;100885.09;4978527;28;20077;-86
2020/12/21 07:06:41;;;;;;;12.48;1.95;;;8.70;89.80;;;8.83;75.04;100887.97;4978162;28;20134;-85
2020/12/21 07:09:09;;;;;;;12.57;1.88;;;8.80;89.80;;;8.82;75.09;100889.00;4982241;28;20392;-84
2020/12/21 07:11:38;;;;;;;11.20;2.40;;;8.70;90.10;;;8.80;75.21;100888.31;4980876;28;20046;-84
2020/12/21 07:14:07;;;;;;;10.25;2.00;;;8.80;90.00;;;8.79;74.72;100892.88;4980946;28;20054;-85
2020/12/21 07:16:34;;;;;;;8.07;2.42;;;8.80;89.70;;;8.78;74.81;100890.34;4979984;28;20550;-84
2020/12/21 07:19:01;;;;;;;8.07;1.80;;;8.80;89.80;;;8.82;75.19;100891.72;4982353;28;20425;-84
2020/12/21 07:21:30;;;;;;;6.32;2.50;;;8.80;89.90;;;8.86;74.85;100893.09;4981493;28;20039;-84
2020/12/21 07:23:57;;;;;;;11.02;2.05;;;8.80;89.80;;;8.81;74.74;100890.00;4982200;28;20181;-84
2020/12/21 07:26:26;;;;;;;7.32;2.03;;;8.90;89.60;;;8.81;74.98;100890.00;4981048;28;20055;-84
2020/12/21 07:28:55;;;;;;;12.13;2.50;;;8.80;89.50;;;8.80;75.19;100891.03;4980918;28;20055;-84
2020/12/21 07:31:22;;;;;;;9.38;2.33;;;8.70;89.80;;;8.79;75.16;100892.03;4992412;28;20093;-84
2020/12/21 07:33:53;;;;;;;12.35;2.28;;;8.70;89.90;;;8.75;75.30;100894.22;4999330;28;20043;-84
2020/12/21 07:36:23;;;;;;;7.93;2.25;;;8.70;90.10;;;8.79;75.12;100887.44;4999310;28;20125;-85
2020/12/21 07:38:51;;;;;;;8.35;1.95;;;8.70;90.00;;;8.79;75.30;100883.91;5000758;28;20086;-84
2020/12/21 07:41:23;;;;;;;13.50;2.47;;;8.60;90.00;;;8.76;74.81;100881.53;5001078;28;20565;-84
2020/12/21 07:44:01;;;;;;;10.40;2.20;;;8.60;90.00;;;8.79;74.65;100883.91;5001079;28;20144;-84
2020/12/21 07:46:38;;;;;;;8.15;2.10;;;8.70;89.90;;;8.79;74.45;100873.03;5001199;28;20518;-84
2020/12/21 07:49:08;;;;;;;10.73;2.42;;;8.60;89.50;;;8.79;74.73;100878.47;5001211;28;20069;-84
2020/12/21 07:51:38;;;;;;;11.13;2.67;;;8.60;89.70;;;8.79;75.15;100886.63;4998452;28;20051;-85
2020/12/21 07:54:07;;;;;;;7.28;2.10;;;8.60;90.00;;;8.82;74.86;100893.59;4997251;28;20523;-83
2020/12/21 07:56:34;;;;;;;9.85;2.00;;;8.60;89.80;;;8.77;74.92;100888.66;4999000;28;20072;-84
2020/12/21 07:59:16;;;;;;;8.07;2.42;;;8.70;90.00;;;8.70;74.91;100896.59;5001225;28;20073;-84
2020/12/21 08:01:43;;;;;;;10.38;2.35;;;8.70;89.50;;;8.77;74.75;100894.91;5001235;28;20038;-83
2020/12/21 08:04:18;;;;;;;9.80;2.17;;;8.70;89.50;;;8.80;75.00;100900.03;5002160;28;20133;-83
2020/12/21 08:06:46;;;;;;;14.20;2.42;;;8.70;89.60;;;8.80;74.66;100897.31;5000059;28;20499;-83
2020/12/21 08:09:14;;;;;;;9.95;2.38;;;8.80;89.20;;;8.75;74.43;100896.94;5001671;28;20471;-83
2020/12/21 08:11:41;;;;;;;9.00;2.28;;;8.80;89.10;;;8.77;75.26;100896.78;5002144;28;20407;-83
2020/12/21 08:14:09;;;;;;;12.75;2.58;;;9.10;89.50;;;8.83;74.93;100892.56;5001427;28;20470;-84
2020/12/21 08:16:36;;;;;;;12.13;2.20;;;8.80;89.20;;;8.86;75.15;100890.38;5001385;28;20047;-83
2020/12/21 08:19:03;;;;;;;9.93;2.38;;;8.80;89.50;;;8.86;74.86;100889.53;5003377;28;20042;-85
2020/12/21 08:21:30;;;;;;;10.43;2.17;;;8.90;89.50;;;8.85;74.63;100877.81;5005322;28;20077;-83
2020/12/21 08:23:59;;;;;;;7.72;2.33;;;8.90;89.50;;;8.85;74.74;100868.81;5004978;28;20056;-83
2020/12/21 08:26:26;;;;;;;6.32;1.90;;;8.90;89.50;;;8.87;75.08;100872.22;5004194;28;20043;-84
2020/12/21 08:28:54;;;;;;;16.85;2.67;;;8.90;89.70;;;8.87;74.81;100864.94;5004738;28;20042;-84
2020/12/21 08:31:23;;;;;;;9.73;2.15;;;8.90;89.40;;;8.83;75.21;100860.84;5004299;28;20053;-84
2020/12/21 08:34:00;;;;;;;10.73;2.33;;;8.90;89.20;;;8.83;74.53;100874.41;5004871;28;20081;-84
2020/12/21 08:36:30;;;;;;;10.90;2.40;;;9.00;89.00;;;8.84;75.03;100865.28;5004468;28;20073;-85
2020/12/21 08:39:11;;;;;;;10.43;2.53;;;9.00;88.70;;;8.83;74.78;100868.97;5005143;28;20053;-85
2020/12/21 08:41:43;;;;;;;7.90;2.15;;;9.10;88.80;;;8.83;75.32;100860.84;5003870;28;20047;-84
2020/12/21 08:44:17;;;;;;;17.02;3.13;;;9.10;88.70;;;8.88;75.28;100858.50;5004384;28;20145;-84
2020/12/21 08:46:47;;;;;;;11.52;2.13;;;9.10;88.60;;;8.95;75.21;100861.41;5002885;28;20057;-85
2020/12/21 08:49:14;;;;;;;10.35;2.00;;;9.10;89.20;;;8.96;75.31;100850.34;5000794;28;20065;-86
2020/12/21 08:51:41;;;;;;;11.75;2.28;;;9.20;89.10;;;8.94;75.17;100844.25;4999884;28;20093;-85
2020/12/21 08:54:08;;;;;;;13.00;2.45;;;9.20;88.80;;;8.97;75.01;100843.94;4998492;28;20049;-86
2020/12/21 08:56:34;;;;;;;11.50;2.33;;;9.20;88.60;;;8.97;75.24;100852.06;5000467;28;20064;-85
2020/12/21 08:59:02;;;;;;;9.52;2.65;;;9.20;88.70;;;8.99;75.45;100849.19;4998823;28;20081;-85
2020/12/21 09:01:29;;;;;;;9.02;2.42;;;9.20;88.70;;;9.02;75.23;100854.28;4998472;28;20074;-85
2020/12/21 09:03:56;;;;;;;7.85;2.13;;;9.20;88.70;;;9.06;75.38;100855.63;4997884;28;20046;-85
2020/12/21 09:06:24;;;;;;;12.35;2.55;;;9.30;88.50;;;9.05;75.43;100850.41;4998539;28;20066;-85
2020/12/21 09:08:52;;;;;;;12.50;2.10;;;9.30;88.50;;;9.05;75.11;100842.25;5000970;28;20054;-84
2020/12/21 09:11:20;;;;;;;10.90;2.42;;;9.30;88.70;;;9.00;74.95;100840.91;4999921;28;20518;-87
2020/12/21 09:13:47;;;;;;;9.43;2.85;;;9.30;88.30;;;9.03;75.10;100836.16;5000135;28;20046;-85
2020/12/21 09:16:19;;;;;;;11.95;2.60;;;9.40;88.30;;;9.02;75.50;100832.56;4999874;28;20077;-85
2020/12/21 09:18:46;;;;;;;12.18;2.47;;;9.40;88.10;;;9.04;75.67;100829.69;5000395;28;20070;-85
2020/12/21 09:21:21;;;;;;;14.13;3.88;;;9.40;88.10;;;9.09;75.88;100821.91;4999226;28;20046;-85
2020/12/21 09:23:49;;;;;;;12.02;2.55;;;9.40;88.20;;;9.09;75.67;100824.59;4981044;28;20054;-85
2020/12/21 09:26:17;;;;;;;9.43;2.85;;;9.50;88.20;;;9.08;75.52;100814.75;4998467;28;20085;-85
2020/12/21 09:28:44;;;;;;;13.52;2.63;;;9.40;88.10;;;9.08;75.25;100810.19;4984776;28;20039;-86
2020/12/21 09:31:11;;;;;;;9.85;2.45;;;9.50;88.10;;;9.15;75.61;100815.78;4978804;28;20058;-85
2020/12/21 09:33:41;;;;;;;8.90;2.30;;;9.50;88.40;;;9.18;75.69;100820.91;4978914;28;20480;-86
2020/12/21 09:36:21;;;;;;;11.90;2.60;;;9.50;88.40;;;9.18;75.66;100810.03;4977629;28;20058;-85
2020/12/21 09:38:49;;;;;;;10.07;2.05;;;9.60;88.30;;;9.21;75.69;100798.81;4978790;28;20078;-85
2020/12/21 09:41:19;;;;;;;11.60;2.10;;;9.60;88.30;;;9.17;75.56;100800.19;4979783;28;20081;-85
2020/12/21 09:43:49;;;;;;;14.82;2.65;;;9.60;87.90;;;9.17;75.23;100794.75;4980758;28;20051;-85
2020/12/21 09:46:22;;;;;;;8.35;2.10;;;9.60;87.80;;;9.21;75.93;100790.66;4980029;28;20053;-86
2020/12/21 09:48:50;;;;;;;10.00;2.33;;;9.60;88.20;;;9.24;75.52;100793.06;4979574;28;20078;-85
2020/12/21 09:51:18;;;;;;;15.57;2.65;;;9.60;88.30;;;9.25;75.73;100789.31;4979983;28;20045;-85
2020/12/21 09:53:45;;;;;;;9.18;2.47;;;9.60;88.00;;;9.27;74.84;100791.84;4979818;28;20074;-85
2020/12/21 09:56:13;;;;;;;9.50;2.60;;;9.70;87.80;;;9.25;75.56;100792.03;4979042;28;20066;-85
2020/12/21 09:58:40;;;;;;;15.88;2.85;;;9.70;87.70;;;9.28;75.61;100799.84;4979036;28;20077;-85
2020/12/21 10:01:08;;;;;;;10.02;2.50;;;9.70;87.90;;;9.31;75.48;100782.34;4979868;28;20089;-86
2020/12/21 10:03:37;;;;;;;8.65;2.00;;;9.70;88.30;;;9.28;75.90;100783.56;4979507;28;20051;-85
2020/12/21 10:06:05;;;;;;;9.95;2.67;;;9.70;88.00;;;9.29;76.08;100773.53;4977342;28;20092;-87
2020/12/21 10:08:32;;;;;;;9.27;2.25;;;9.80;87.90;;;9.32;75.95;100771.31;4976511;28;20055;-87
2020/12/21 10:10:58;;;;;;;12.10;2.17;;;9.80;87.90;;;9.25;75.57;100764.88;4979167;28;20078;-85
2020/12/21 10:13:25;;;;;;;10.00;2.30;;;9.80;87.30;;;9.23;75.75;100758.75;4980371;28;20511;-83
2020/12/21 10:15:52;;;;;;;9.40;2.17;;;9.90;87.40;;;9.29;76.08;100758.09;4980994;28;20053;-83
2020/12/21 10:18:18;;;;;;;14.77;2.47;;;9.90;87.50;;;9.36;76.12;100750.09;4980180;28;20102;-84
2020/12/21 10:20:46;;;;;;;7.50;2.30;;;9.90;87.70;;;9.37;76.02;100744.50;4981081;28;20062;-84
2020/12/21 10:23:14;;;;;;;10.35;2.10;;;9.90;87.60;;;9.36;76.30;100744.66;4979478;28;20130;-84
2020/12/21 10:25:41;;;;;;;13.10;2.65;;;10.00;87.70;;;9.33;76.78;100748.59;4978732;28;20051;-83